Time;durP1;ratioP1;P1;durP2;ratioP2;P2;SDS_P1;SDS_P2;PMS_P1;PMS_P2;Temp;Humidity;BMP_temperature;BMP_pressure;BME280_temperature;BME280_humidity;BME280_pressure;Samples;Min_cycle;Max_cycle;Signal;HPM_P1;HPM_P2
2022/08/27 00:00:18;;;;;;;16.40;12.80;;;;;;;;;;4952885;29;20035;-88
2022/08/27 00:02:44;;;;;;;17.52;13.38;;;;;;;;;;4925009;29;20094;-88
2022/08/27 00:05:10;;;;;;;14.65;13.10;;;;;;;;;;4932927;29;20047;-89
2022/08/27 00:07:35;;;;;;;19.02;12.48;;;;;;;;;;4940144;29;20034;-89
2022/08/27 00:10:01;;;;;;;16.73;13.18;;;;;;;;;;4974958;23;20055;-90
2022/08/27 00:12:27;;;;;;;20.50;13.30;;;;;;;;;;4928830;29;20039;-90
2022/08/27 00:14:52;;;;;;;15.52;12.40;;;;;;;;;;4924449;29;20552;-87
2022/08/27 00:17:18;;;;;;;15.40;12.90;;;;;;;;;;4921761;29;20043;-88
2022/08/27 00:19:43;;;;;;;17.33;13.93;;;;;;;;;;4936471;29;20031;-86
2022/08/27 00:22:09;;;;;;;19.30;13.52;;;;;;;;;;4921121;29;20023;-86
2022/08/27 00:24:35;;;;;;;20.40;12.90;;;;;;;;;;4952039;29;20037;-87
2022/08/27 00:27:00;;;;;;;20.25;12.68;;;;;;;;;;4920730;29;20079;-88
2022/08/27 00:29:26;;;;;;;17.60;11.90;;;;;;;;;;4945391;29;20411;-88
2022/08/27 00:31:52;;;;;;;19.02;11.23;;;;;;;;;;4951703;29;20026;-87
2022/08/27 00:34:18;;;;;;;15.82;11.88;;;;;;;;;;4920986;29;20035;-87
2022/08/27 00:36:44;;;;;;;19.92;12.07;;;;;;;;;;4933442;29;20027;-87
2022/08/27 00:39:10;;;;;;;17.60;11.50;;;;;;;;;;4930415;29;20079;-88
2022/08/27 00:41:36;;;;;;;14.18;11.15;;;;;;;;;;4936101;29;20020;-88
2022/08/27 00:44:01;;;;;;;13.00;10.70;;;;;;;;;;4986039;23;20055;-87
2022/08/27 00:46:27;;;;;;;16.65;10.90;;;;;;;;;;4949394;29;20026;-88
2022/08/27 00:48:54;;;;;;;14.93;11.05;;;;;;;;;;4950318;29;20075;-87
2022/08/27 00:51:20;;;;;;;15.50;10.95;;;;;;;;;;4933140;29;20123;-87
2022/08/27 00:53:46;;;;;;;14.73;10.90;;;;;;;;;;4933912;29;20475;-87
2022/08/27 00:56:14;;;;;;;16.05;11.00;;;;;;;;;;4934664;28;20078;-88
2022/08/27 00:58:42;;;;;;;17.52;10.80;;;;;;;;;;4948382;29;20135;-87
2022/08/27 01:01:08;;;;;;;12.13;9.95;;;;;;;;;;4934839;29;20110;-87
2022/08/27 01:03:37;;;;;;;19.55;11.10;;;;;;;;;;4934218;29;20130;-86
2022/08/27 01:06:03;;;;;;;13.07;10.48;;;;;;;;;;4934806;29;20031;-87
2022/08/27 01:08:31;;;;;;;15.35;11.38;;;;;;;;;;4944816;29;20043;-88
2022/08/27 01:10:57;;;;;;;14.93;11.77;;;;;;;;;;4969874;29;20027;-88
2022/08/27 01:13:23;;;;;;;15.18;10.82;;;;;;;;;;4968453;29;20065;-87
2022/08/27 01:15:49;;;;;;;15.30;10.52;;;;;;;;;;4935661;29;20026;-88
2022/08/27 01:18:14;;;;;;;13.35;10.77;;;;;;;;;;4934731;29;20042;-87
2022/08/27 01:20:59;;;;;;;17.60;10.75;;;;;;;;;;4932428;29;20427;-87
2022/08/27 01:23:27;;;;;;;15.23;11.07;;;;;;;;;;4944274;29;20046;-87
2022/08/27 01:25:53;;;;;;;18.80;11.15;;;;;;;;;;4952614;29;20039;-88
2022/08/27 01:28:18;;;;;;;17.20;10.52;;;;;;;;;;4963692;29;20050;-88
2022/08/27 01:30:44;;;;;;;14.45;10.77;;;;;;;;;;4933331;29;20027;-88
2022/08/27 01:33:10;;;;;;;14.70;10.18;;;;;;;;;;4950446;29;20093;-87
2022/08/27 01:35:36;;;;;;;15.05;10.27;;;;;;;;;;4933219;29;20058;-87
2022/08/27 01:38:01;;;;;;;15.52;10.27;;;;;;;;;;4948097;28;20035;-86
2022/08/27 01:40:27;;;;;;;14.50;10.05;;;;;;;;;;4945337;29;20112;-86
2022/08/27 01:42:54;;;;;;;15.27;10.73;;;;;;;;;;4933944;29;20062;-88
2022/08/27 01:45:21;;;;;;;12.68;10.25;;;;;;;;;;4949089;29;20114;-87
2022/08/27 01:47:47;;;;;;;17.98;11.35;;;;;;;;;;4948444;29;20043;-88
2022/08/27 01:50:14;;;;;;;17.73;11.77;;;;;;;;;;4914274;29;20098;-87
2022/08/27 01:52:39;;;;;;;16.35;11.82;;;;;;;;;;4934200;29;20031;-87
2022/08/27 01:55:06;;;;;;;20.23;10.77;;;;;;;;;;4930702;29;20027;-87
2022/08/27 01:57:33;;;;;;;12.75;10.27;;;;;;;;;;4933447;29;20051;-87
2022/08/27 01:59:59;;;;;;;17.52;10.32;;;;;;;;;;4929384;29;20023;-87
2022/08/27 02:02:25;;;;;;;15.90;9.90;;;;;;;;;;4932442;29;20062;-86
2022/08/27 02:04:50;;;;;;;14.23;10.57;;;;;;;;;;4933868;29;20031;-86
2022/08/27 02:07:16;;;;;;;17.48;10.63;;;;;;;;;;4911456;29;20042;-88
2022/08/27 02:09:42;;;;;;;15.98;10.07;;;;;;;;;;4931848;29;20027;-88
2022/08/27 02:12:07;;;;;;;14.20;10.00;;;;;;;;;;4933189;29;20055;-87
2022/08/27 02:14:33;;;;;;;15.02;10.27;;;;;;;;;;4929449;29;20035;-86
2022/08/27 02:16:59;;;;;;;16.65;10.32;;;;;;;;;;4932987;29;20043;-88
2022/08/27 02:19:25;;;;;;;13.98;10.20;;;;;;;;;;4952441;29;20397;-88
2022/08/27 02:21:52;;;;;;;19.65;10.98;;;;;;;;;;4936918;29;20055;-88
2022/08/27 02:24:18;;;;;;;13.75;10.13;;;;;;;;;;4935987;29;20087;-89
2022/08/27 02:26:45;;;;;;;14.77;10.63;;;;;;;;;;4939591;29;20042;-87
2022/08/27 02:29:10;;;;;;;13.25;10.45;;;;;;;;;;4939379;29;20031;-89
2022/08/27 02:31:36;;;;;;;13.18;9.80;;;;;;;;;;4934716;29;20039;-87
2022/08/27 02:34:02;;;;;;;15.57;10.02;;;;;;;;;;4933638;29;20043;-89
2022/08/27 02:36:28;;;;;;;14.57;10.23;;;;;;;;;;4932749;29;20111;-88
2022/08/27 02:38:54;;;;;;;14.38;10.35;;;;;;;;;;4930792;29;20074;-88
2022/08/27 02:41:20;;;;;;;13.48;9.98;;;;;;;;;;4951328;29;20095;-89
2022/08/27 02:43:45;;;;;;;17.73;9.90;;;;;;;;;;4946273;29;20066;-86
2022/08/27 02:46:11;;;;;;;15.48;9.73;;;;;;;;;;4936307;29;20043;-88
2022/08/27 02:48:37;;;;;;;16.83;10.13;;;;;;;;;;4931103;29;20035;-86
2022/08/27 02:51:04;;;;;;;15.30;10.20;;;;;;;;;;4931260;29;20426;-87
2022/08/27 02:53:30;;;;;;;16.15;10.18;;;;;;;;;;4933866;29;20406;-88
2022/08/27 02:55:56;;;;;;;16.77;9.90;;;;;;;;;;4932946;29;20043;-87
2022/08/27 02:58:21;;;;;;;15.02;9.75;;;;;;;;;;4930757;29;20024;-86
2022/08/27 03:00:47;;;;;;;14.88;10.15;;;;;;;;;;4925874;29;20095;-88
2022/08/27 03:03:12;;;;;;;13.57;9.15;;;;;;;;;;4939966;29;20091;-86
2022/08/27 03:05:38;;;;;;;16.98;9.77;;;;;;;;;;4933463;29;20146;-86
2022/08/27 03:08:04;;;;;;;12.30;9.43;;;;;;;;;;4927365;29;20027;-88
2022/08/27 03:10:29;;;;;;;14.45;9.73;;;;;;;;;;4945780;29;20107;-87
2022/08/27 03:12:56;;;;;;;13.48;9.65;;;;;;;;;;4931065;29;20516;-87
2022/08/27 03:15:21;;;;;;;19.45;10.60;;;;;;;;;;4931968;29;20090;-88
2022/08/27 03:20:32;;;;;;;11.27;9.07;;;;;;;;;;4939126;29;20039;-87
2022/08/27 03:22:57;;;;;;;14.70;9.25;;;;;;;;;;4951607;29;20134;-88
2022/08/27 03:25:23;;;;;;;15.32;9.60;;;;;;;;;;4949831;29;20035;-87
2022/08/27 03:27:49;;;;;;;12.90;9.85;;;;;;;;;;4953032;29;20031;-88
2022/08/27 03:30:15;;;;;;;14.63;9.38;;;;;;;;;;4934973;29;20031;-88
2022/08/27 03:32:42;;;;;;;14.60;9.30;;;;;;;;;;4953171;29;20015;-89
2022/08/27 03:35:10;;;;;;;15.23;8.90;;;;;;;;;;4939158;29;20063;-87
2022/08/27 03:37:36;;;;;;;12.27;8.80;;;;;;;;;;4915397;29;20126;-77
2022/08/27 03:40:02;;;;;;;15.52;9.25;;;;;;;;;;4934863;29;20069;-76
2022/08/27 03:42:28;;;;;;;16.55;9.68;;;;;;;;;;4944341;29;20034;-75
2022/08/27 03:44:53;;;;;;;16.55;9.15;;;;;;;;;;4935228;29;20035;-76
2022/08/27 03:47:19;;;;;;;19.63;9.35;;;;;;;;;;4953697;29;20411;-76
2022/08/27 03:49:46;;;;;;;15.75;9.32;;;;;;;;;;4936439;29;20031;-77
2022/08/27 03:52:13;;;;;;;14.13;8.82;;;;;;;;;;4920503;29;20482;-75
2022/08/27 03:54:38;;;;;;;14.73;8.88;;;;;;;;;;4934132;29;20035;-75
2022/08/27 03:57:04;;;;;;;18.27;8.90;;;;;;;;;;4953406;29;20090;-76
2022/08/27 03:59:29;;;;;;;15.10;9.48;;;;;;;;;;4952919;28;20024;-76
2022/08/27 04:01:55;;;;;;;13.63;9.10;;;;;;;;;;4942866;29;20066;-75
2022/08/27 04:04:22;;;;;;;18.45;9.18;;;;;;;;;;4935236;29;20047;-76
2022/08/27 04:06:48;;;;;;;13.35;9.20;;;;;;;;;;4936369;29;20097;-75
2022/08/27 04:09:13;;;;;;;13.95;9.40;;;;;;;;;;4937356;29;20043;-75
2022/08/27 04:11:39;;;;;;;17.55;8.90;;;;;;;;;;4936219;29;20038;-75
2022/08/27 04:14:05;;;;;;;15.25;9.45;;;;;;;;;;4934272;29;20063;-75
2022/08/27 04:16:31;;;;;;;17.42;9.30;;;;;;;;;;4953260;29;20027;-75
2022/08/27 04:18:57;;;;;;;14.18;10.10;;;;;;;;;;4956071;28;20027;-75
2022/08/27 04:21:23;;;;;;;13.95;9.23;;;;;;;;;;4939593;29;20035;-76
2022/08/27 04:23:48;;;;;;;13.82;8.43;;;;;;;;;;4931221;29;20446;-75
2022/08/27 04:26:14;;;;;;;13.32;9.20;;;;;;;;;;4936570;29;20095;-76
2022/08/27 04:28:40;;;;;;;16.90;9.38;;;;;;;;;;4956314;29;20035;-75
2022/08/27 04:31:06;;;;;;;18.63;10.40;;;;;;;;;;4939520;29;20027;-76
2022/08/27 04:33:31;;;;;;;15.43;9.32;;;;;;;;;;4936125;29;20122;-80
2022/08/27 04:35:58;;;;;;;15.10;9.93;;;;;;;;;;4923672;29;20470;-75
2022/08/27 04:38:23;;;;;;;16.55;9.68;;;;;;;;;;4930034;29;20423;-76
2022/08/27 04:43:33;;;;;;;17.23;10.00;;;;;;;;;;4951357;29;20518;-76
2022/08/27 04:45:58;;;;;;;15.90;9.65;;;;;;;;;;4956577;29;20035;-76
2022/08/27 04:48:24;;;;;;;13.93;10.07;;;;;;;;;;4956580;29;20477;-75
2022/08/27 04:50:50;;;;;;;15.80;9.55;;;;;;;;;;4922976;28;20054;-76
2022/08/27 04:53:15;;;;;;;15.40;9.93;;;;;;;;;;4937316;29;20078;-75
2022/08/27 04:55:42;;;;;;;18.23;10.07;;;;;;;;;;4954821;29;20118;-76
2022/08/27 04:58:08;;;;;;;16.83;9.38;;;;;;;;;;4935993;29;20559;-78
2022/08/27 05:00:39;;;;;;;16.88;9.63;;;;;;;;;;4930794;29;20038;-78
2022/08/27 05:03:05;;;;;;;14.80;10.15;;;;;;;;;;4956669;29;20034;-76
2022/08/27 05:05:30;;;;;;;18.25;10.60;;;;;;;;;;4956706;29;20399;-77
2022/08/27 05:07:56;;;;;;;16.48;10.95;;;;;;;;;;4939388;29;20043;-77
2022/08/27 05:10:21;;;;;;;19.42;11.20;;;;;;;;;;4931540;29;20038;-76
2022/08/27 05:12:48;;;;;;;18.55;11.27;;;;;;;;;;4920170;29;20039;-75
2022/08/27 05:15:14;;;;;;;17.67;10.85;;;;;;;;;;4938820;29;20031;-76
2022/08/27 05:17:39;;;;;;;18.63;9.10;;;;;;;;;;4954941;28;20046;-76
2022/08/27 05:20:05;;;;;;;16.42;9.15;;;;;;;;;;4935494;29;20106;-75
2022/08/27 05:22:30;;;;;;;18.50;9.63;;;;;;;;;;4954564;29;20023;-76
2022/08/27 05:24:56;;;;;;;13.98;9.23;;;;;;;;;;4935407;29;20031;-77
2022/08/27 05:27:21;;;;;;;15.30;8.77;;;;;;;;;;4938302;29;20487;-76
2022/08/27 05:29:47;;;;;;;20.38;8.90;;;;;;;;;;4954840;28;20387;-75
2022/08/27 05:32:13;;;;;;;14.55;8.60;;;;;;;;;;4934610;29;20103;-75
2022/08/27 05:34:39;;;;;;;16.52;8.05;;;;;;;;;;4947133;29;20035;-75
2022/08/27 05:37:04;;;;;;;14.18;8.93;;;;;;;;;;4934757;29;20508;-75
2022/08/27 05:39:30;;;;;;;17.77;12.00;;;;;;;;;;4933502;28;20038;-77
2022/08/27 05:41:56;;;;;;;13.73;8.60;;;;;;;;;;4954414;29;20034;-77
2022/08/27 05:44:21;;;;;;;14.88;8.80;;;;;;;;;;4913318;29;20456;-77
2022/08/27 05:46:47;;;;;;;15.85;8.57;;;;;;;;;;4931242;29;20039;-77
2022/08/27 05:49:13;;;;;;;15.82;8.23;;;;;;;;;;4955323;29;20045;-77
2022/08/27 05:51:39;;;;;;;12.45;8.35;;;;;;;;;;4955331;29;20368;-77
2022/08/27 05:54:06;;;;;;;14.10;8.50;;;;;;;;;;4920699;29;20034;-77
2022/08/27 05:56:32;;;;;;;15.13;7.82;;;;;;;;;;4953042;29;20110;-77
2022/08/27 06:01:43;;;;;;;11.85;8.20;;;;;;;;;;4946455;29;20098;-77
2022/08/27 06:04:09;;;;;;;12.50;7.57;;;;;;;;;;4937364;29;20027;-77
2022/08/27 06:06:38;;;;;;;15.05;7.40;;;;;;;;;;4921739;29;20497;-77
2022/08/27 06:09:04;;;;;;;15.68;8.13;;;;;;;;;;4954817;29;20478;-75
2022/08/27 06:11:29;;;;;;;18.17;8.40;;;;;;;;;;4953603;29;20057;-76
2022/08/27 06:13:56;;;;;;;13.35;8.05;;;;;;;;;;4920794;29;20031;-75
2022/08/27 06:16:21;;;;;;;14.50;7.78;;;;;;;;;;4918152;29;20035;-76
2022/08/27 06:18:48;;;;;;;15.00;8.48;;;;;;;;;;4937601;29;20038;-76
2022/08/27 06:21:14;;;;;;;14.30;7.57;;;;;;;;;;4925270;29;20039;-76
2022/08/27 06:23:41;;;;;;;17.33;11.05;;;;;;;;;;4918034;29;20030;-75
2022/08/27 06:26:08;;;;;;;13.52;7.90;;;;;;;;;;4936900;29;20089;-76
2022/08/27 06:28:34;;;;;;;11.57;7.60;;;;;;;;;;4919830;29;20042;-77
2022/08/27 06:31:33;;;;;;;12.82;7.55;;;;;;;;;;4937729;29;20039;-75
2022/08/27 06:34:00;;;;;;;13.30;6.72;;;;;;;;;;4902989;29;20082;-77
2022/08/27 06:36:25;;;;;;;11.90;7.15;;;;;;;;;;4930187;29;20079;-76
2022/08/27 06:38:51;;;;;;;13.00;7.68;;;;;;;;;;4951290;29;20023;-78
2022/08/27 06:41:19;;;;;;;9.95;6.75;;;;;;;;;;4944543;29;20054;-76
2022/08/27 06:43:46;;;;;;;12.43;6.88;;;;;;;;;;4942146;29;20052;-76
2022/08/27 06:46:12;;;;;;;10.68;6.63;;;;;;;;;;4916957;29;20043;-76
2022/08/27 06:48:38;;;;;;;11.70;7.28;;;;;;;;;;4932401;29;20495;-75
2022/08/27 06:51:11;;;;;;;14.13;7.38;;;;;;;;;;4921259;29;20030;-76
2022/08/27 06:53:37;;;;;;;11.82;7.30;;;;;;;;;;4951488;29;20027;-75
2022/08/27 06:56:03;;;;;;;12.63;7.80;;;;;;;;;;4943685;29;20043;-79
2022/08/27 06:58:28;;;;;;;13.70;7.03;;;;;;;;;;4938220;29;20039;-76
2022/08/27 07:00:54;;;;;;;10.80;6.68;;;;;;;;;;4933297;29;20038;-77
2022/08/27 07:03:20;;;;;;;14.02;6.80;;;;;;;;;;4934806;29;20451;-76
2022/08/27 07:05:45;;;;;;;13.68;6.85;;;;;;;;;;4933887;29;20020;-77
2022/08/27 07:08:11;;;;;;;13.82;7.85;;;;;;;;;;4943141;29;20396;-79
2022/08/27 07:10:36;;;;;;;10.07;6.97;;;;;;;;;;4933453;29;20027;-78
2022/08/27 07:13:02;;;;;;;11.63;6.57;;;;;;;;;;4936026;29;20086;-80
2022/08/27 07:15:28;;;;;;;11.90;6.88;;;;;;;;;;4933950;29;20202;-75
2022/08/27 07:17:53;;;;;;;13.50;6.88;;;;;;;;;;4944824;29;20086;-76
2022/08/27 07:20:19;;;;;;;10.50;6.97;;;;;;;;;;4953121;29;20047;-76
2022/08/27 07:22:44;;;;;;;13.98;7.63;;;;;;;;;;4949513;29;20082;-75
2022/08/27 07:25:11;;;;;;;15.93;7.68;;;;;;;;;;4935546;29;20086;-77
2022/08/27 07:27:38;;;;;;;13.88;7.00;;;;;;;;;;4935371;29;20122;-77
2022/08/27 07:30:07;;;;;;;10.77;6.43;;;;;;;;;;4949560;29;20035;-75
2022/08/27 07:32:32;;;;;;;9.02;6.75;;;;;;;;;;4936074;28;20122;-77
2022/08/27 07:34:58;;;;;;;13.35;6.65;;;;;;;;;;4953571;29;20553;-76
2022/08/27 07:37:24;;;;;;;12.80;6.95;;;;;;;;;;4946234;29;20090;-76
2022/08/27 07:39:49;;;;;;;10.68;7.18;;;;;;;;;;4945275;29;20042;-77
2022/08/27 07:45:20;;;;;;;19.85;6.75;;;;;;;;;;4894190;29;20052;-80
2022/08/27 07:47:46;;;;;;;11.90;6.80;;;;;;;;;;4879843;29;20048;-77
2022/08/27 07:50:12;;;;;;;16.23;6.53;;;;;;;;;;4888378;29;20043;-76
2022/08/27 07:52:37;;;;;;;14.57;6.65;;;;;;;;;;4938245;28;20024;-78
2022/08/27 07:55:03;;;;;;;9.35;6.13;;;;;;;;;;4951850;29;20049;-77
2022/08/27 07:57:29;;;;;;;9.27;6.10;;;;;;;;;;4939858;29;20023;-77
2022/08/27 07:59:55;;;;;;;8.68;6.00;;;;;;;;;;4941283;29;20032;-76
2022/08/27 08:02:20;;;;;;;11.85;5.93;;;;;;;;;;4956562;29;20035;-77
2022/08/27 08:04:46;;;;;;;9.25;6.15;;;;;;;;;;4936025;29;20134;-78
2022/08/27 08:07:12;;;;;;;14.80;6.30;;;;;;;;;;4942328;29;20020;-78
2022/08/27 08:09:37;;;;;;;14.02;6.88;;;;;;;;;;4939337;29;20043;-78
2022/08/27 08:12:03;;;;;;;10.82;6.53;;;;;;;;;;4953762;29;20030;-78
2022/08/27 08:14:30;;;;;;;9.65;6.03;;;;;;;;;;4938674;29;20038;-77
2022/08/27 08:17:03;;;;;;;12.77;6.38;;;;;;;;;;4937200;29;20066;-76
2022/08/27 08:19:29;;;;;;;9.10;6.03;;;;;;;;;;4944790;29;20031;-77
2022/08/27 08:21:54;;;;;;;11.25;6.10;;;;;;;;;;4936941;29;20091;-76
2022/08/27 08:24:20;;;;;;;13.60;7.40;;;;;;;;;;4956095;29;20043;-78
2022/08/27 08:26:45;;;;;;;10.25;5.90;;;;;;;;;;4961336;28;20134;-75
2022/08/27 08:29:11;;;;;;;10.20;6.07;;;;;;;;;;4925370;29;20097;-76
2022/08/27 08:31:37;;;;;;;9.60;6.35;;;;;;;;;;4921734;29;20169;-74
2022/08/27 08:34:02;;;;;;;11.85;6.45;;;;;;;;;;4955506;29;20550;-79
2022/08/27 08:36:28;;;;;;;16.48;6.90;;;;;;;;;;4941824;29;20438;-78
2022/08/27 08:38:54;;;;;;;10.38;6.90;;;;;;;;;;4936982;29;20110;-78
2022/08/27 08:41:37;;;;;;;12.10;5.75;;;;;;;;;;4920394;29;20031;-76
2022/08/27 08:44:07;;;;;;;8.02;5.15;;;;;;;;;;4932194;29;20061;-78
2022/08/27 08:46:36;;;;;;;16.23;6.22;;;;;;;;;;4939859;29;20039;-74
2022/08/27 08:49:06;;;;;;;8.23;5.68;;;;;;;;;;4923097;29;20046;-77
2022/08/27 08:51:33;;;;;;;8.93;5.38;;;;;;;;;;4955980;29;20045;-76
2022/08/27 08:54:05;;;;;;;9.70;5.32;;;;;;;;;;4954846;29;20038;-77
2022/08/27 08:56:50;;;;;;;9.55;5.10;;;;;;;;;;4932571;29;20044;-77
2022/08/27 08:59:17;;;;;;;6.88;4.50;;;;;;;;;;4933149;29;20549;-77
2022/08/27 09:01:44;;;;;;;13.32;5.07;;;;;;;;;;4933443;29;20190;-75
2022/08/27 09:04:09;;;;;;;7.35;4.80;;;;;;;;;;4940804;29;20066;-76
2022/08/27 09:06:44;;;;;;;12.45;5.18;;;;;;;;;;4945075;29;20040;-77
2022/08/27 09:09:15;;;;;;;9.50;4.65;;;;;;;;;;4936408;29;20042;-77
2022/08/27 09:11:45;;;;;;;8.70;4.78;;;;;;;;;;4921867;29;20043;-78
2022/08/27 09:14:23;;;;;;;12.43;5.32;;;;;;;;;;4938995;29;20046;-76
2022/08/27 09:16:49;;;;;;;12.32;4.70;;;;;;;;;;4938995;29;20494;-77
2022/08/27 09:19:14;;;;;;;7.35;4.97;;;;;;;;;;4956242;29;20034;-76
2022/08/27 09:21:43;;;;;;;8.18;5.28;;;;;;;;;;4952962;29;20512;-76
2022/08/27 09:24:14;;;;;;;9.98;5.00;;;;;;;;;;4935129;29;20052;-78
2022/08/27 09:26:40;;;;;;;9.88;5.20;;;;;;;;;;4921321;29;20027;-76
2022/08/27 09:29:15;;;;;;;7.57;4.63;;;;;;;;;;4923086;29;20394;-78
2022/08/27 09:31:59;;;;;;;8.82;4.60;;;;;;;;;;4940553;29;20513;-79
2022/08/27 09:34:26;;;;;;;7.25;4.75;;;;;;;;;;4939319;29;20037;-78
2022/08/27 09:36:59;;;;;;;7.85;5.00;;;;;;;;;;4938658;29;20030;-78
2022/08/27 09:39:31;;;;;;;9.15;5.10;;;;;;;;;;4930894;29;20499;-80
2022/08/27 09:41:57;;;;;;;10.60;4.45;;;;;;;;;;4938653;29;20087;-78
2022/08/27 09:44:23;;;;;;;5.43;4.13;;;;;;;;;;4935530;29;20051;-78
2022/08/27 09:46:52;;;;;;;6.25;4.28;;;;;;;;;;4937114;29;20455;-80
2022/08/27 09:49:18;;;;;;;9.95;4.45;;;;;;;;;;4938292;29;20031;-76
2022/08/27 09:51:44;;;;;;;6.95;3.88;;;;;;;;;;4906703;29;20035;-78
2022/08/27 09:54:10;;;;;;;6.63;4.07;;;;;;;;;;4919759;29;20031;-79
2022/08/27 09:56:36;;;;;;;7.68;4.35;;;;;;;;;;4935375;29;20051;-77
2022/08/27 09:59:09;;;;;;;8.65;4.60;;;;;;;;;;4938531;29;20493;-79
2022/08/27 10:01:51;;;;;;;9.15;4.80;;;;;;;;;;4955920;29;20122;-80
2022/08/27 10:04:23;;;;;;;8.02;4.63;;;;;;;;;;4922091;29;20046;-77
2022/08/27 10:06:48;;;;;;;8.80;4.90;;;;;;;;;;4919034;29;20126;-79
2022/08/27 10:09:16;;;;;;;6.53;4.38;;;;;;;;;;4948820;29;20118;-77
2022/08/27 10:11:50;;;;;;;10.32;4.55;;;;;;;;;;4955361;28;20047;-77
2022/08/27 10:14:32;;;;;;;7.10;4.65;;;;;;;;;;4954629;29;20051;-76
2022/08/27 10:16:58;;;;;;;5.60;4.40;;;;;;;;;;4931467;29;20035;-76
2022/08/27 10:19:24;;;;;;;8.40;4.90;;;;;;;;;;4924666;29;20384;-78
2022/08/27 10:21:49;;;;;;;6.28;4.28;;;;;;;;;;4953192;28;20031;-76
2022/08/27 10:24:29;;;;;;;12.35;5.00;;;;;;;;;;4934841;29;20096;-76
2022/08/27 10:27:04;;;;;;;10.52;5.07;;;;;;;;;;4935641;29;20051;-77
2022/08/27 10:29:35;;;;;;;10.85;4.88;;;;;;;;;;4938033;29;20053;-78
2022/08/27 10:32:10;;;;;;;9.05;4.63;;;;;;;;;;4936997;29;20031;-76
2022/08/27 10:35:03;;;;;;;7.57;4.47;;;;;;;;;;4934270;29;20131;-78
2022/08/27 10:37:47;;;;;;;7.40;4.97;;;;;;;;;;4918160;29;20506;-77
2022/08/27 10:40:27;;;;;;;7.20;4.68;;;;;;;;;;4937517;29;20054;-78
2022/08/27 10:43:01;;;;;;;8.45;4.93;;;;;;;;;;4937242;29;20061;-77
2022/08/27 10:45:29;;;;;;;8.57;5.07;;;;;;;;;;4949551;29;20515;-76
2022/08/27 10:48:15;;;;;;;7.40;5.35;;;;;;;;;;4954335;29;20039;-77
2022/08/27 10:50:55;;;;;;;8.30;4.88;;;;;;;;;;4954483;29;20039;-76
2022/08/27 10:53:34;;;;;;;8.23;5.18;;;;;;;;;;4953211;29;20462;-76
2022/08/27 10:56:05;;;;;;;8.23;4.93;;;;;;;;;;4951779;29;20554;-75
2022/08/27 10:58:35;;;;;;;7.03;5.25;;;;;;;;;;4937873;29;20122;-77
2022/08/27 11:01:01;;;;;;;8.20;5.35;;;;;;;;;;4937795;29;20031;-76
2022/08/27 11:03:26;;;;;;;9.45;4.88;;;;;;;;;;4934547;29;20027;-77
2022/08/27 11:05:52;;;;;;;7.80;5.10;;;;;;;;;;4950815;29;20031;-77
2022/08/27 11:08:38;;;;;;;8.13;5.05;;;;;;;;;;4937139;29;20046;-77
2022/08/27 11:11:05;;;;;;;10.63;5.22;;;;;;;;;;4935835;29;20035;-78
2022/08/27 11:13:58;;;;;;;9.70;5.22;;;;;;;;;;4936868;29;20023;-77
2022/08/27 11:16:25;;;;;;;9.43;5.35;;;;;;;;;;4938593;29;20091;-77
2022/08/27 11:18:53;;;;;;;6.55;5.20;;;;;;;;;;4937322;29;20805;-75
2022/08/27 11:21:34;;;;;;;10.98;4.90;;;;;;;;;;4946425;29;20031;-76
2022/08/27 11:24:25;;;;;;;7.28;4.88;;;;;;;;;;4941040;29;20046;-78
2022/08/27 11:26:52;;;;;;;9.90;5.37;;;;;;;;;;4953056;28;20170;-76
2022/08/27 11:29:20;;;;;;;8.65;5.38;;;;;;;;;;4950466;29;20266;-77
2022/08/27 11:31:54;;;;;;;9.80;5.13;;;;;;;;;;4941412;29;20039;-76
2022/08/27 11:34:23;;;;;;;8.52;4.90;;;;;;;;;;4931260;29;20503;-77
2022/08/27 11:37:18;;;;;;;8.25;5.05;;;;;;;;;;4939926;29;20027;-76
2022/08/27 11:39:48;;;;;;;6.00;5.25;;;;;;;;;;4937296;28;20039;-76
2022/08/27 11:42:20;;;;;;;7.63;5.28;;;;;;;;;;4940858;29;20074;-76
2022/08/27 11:44:46;;;;;;;9.23;5.47;;;;;;;;;;4939091;29;20052;-75
2022/08/27 11:47:13;;;;;;;6.47;5.00;;;;;;;;;;4925137;29;20035;-77
2022/08/27 11:49:43;;;;;;;9.23;5.20;;;;;;;;;;4923970;29;20137;-78
2022/08/27 11:52:08;;;;;;;7.78;4.78;;;;;;;;;;4940781;29;20554;-76
2022/08/27 11:54:50;;;;;;;11.25;5.75;;;;;;;;;;4939707;29;20174;-76
2022/08/27 11:57:26;;;;;;;7.88;5.03;;;;;;;;;;4924651;29;20043;-76
2022/08/27 11:59:52;;;;;;;6.03;5.00;;;;;;;;;;4957652;28;20101;-77
2022/08/27 12:02:25;;;;;;;8.70;5.15;;;;;;;;;;4940433;28;20545;-77
2022/08/27 12:04:51;;;;;;;8.05;5.10;;;;;;;;;;4939433;29;20488;-78
2022/08/27 12:07:16;;;;;;;8.75;5.50;;;;;;;;;;4939242;29;20168;-77
2022/08/27 12:09:45;;;;;;;10.43;6.70;;;;;;;;;;4957557;29;20077;-77
2022/08/27 12:12:21;;;;;;;7.72;5.35;;;;;;;;;;4934480;29;20023;-77
2022/08/27 12:14:48;;;;;;;10.13;5.57;;;;;;;;;;4949787;29;20485;-78
2022/08/27 12:17:24;;;;;;;9.32;5.90;;;;;;;;;;4934736;29;20027;-77
2022/08/27 12:20:00;;;;;;;7.97;5.50;;;;;;;;;;4956184;29;20027;-76
2022/08/27 12:22:25;;;;;;;8.60;5.25;;;;;;;;;;4950884;29;20066;-76
2022/08/27 12:24:52;;;;;;;10.57;5.78;;;;;;;;;;4940039;29;20083;-77
2022/08/27 12:27:23;;;;;;;7.10;5.60;;;;;;;;;;4950886;29;20035;-76
2022/08/27 12:29:49;;;;;;;9.75;6.22;;;;;;;;;;4956069;29;20089;-75
2022/08/27 12:32:47;;;;;;;10.68;6.45;;;;;;;;;;4957105;29;20031;-77
2022/08/27 12:35:18;;;;;;;8.50;5.90;;;;;;;;;;4917954;29;20090;-76
2022/08/27 12:38:02;;;;;;;13.15;6.10;;;;;;;;;;4954368;28;20118;-76
2022/08/27 12:40:29;;;;;;;9.38;6.00;;;;;;;;;;4950590;29;20491;-77
2022/08/27 12:43:09;;;;;;;8.43;5.90;;;;;;;;;;4938893;29;20056;-77
2022/08/27 12:45:40;;;;;;;9.27;6.35;;;;;;;;;;4940064;29;20039;-76
2022/08/27 12:48:07;;;;;;;7.43;6.50;;;;;;;;;;4939873;29;20493;-76
2022/08/27 12:50:32;;;;;;;12.80;6.57;;;;;;;;;;4938657;29;20034;-76
2022/08/27 12:53:14;;;;;;;7.65;5.90;;;;;;;;;;4939491;29;20035;-77
2022/08/27 12:56:00;;;;;;;9.95;7.00;;;;;;;;;;4939321;29;20043;-76
2022/08/27 12:58:32;;;;;;;9.85;6.00;;;;;;;;;;4929370;29;20151;-80
2022/08/27 13:00:58;;;;;;;7.43;6.13;;;;;;;;;;4956414;29;20027;-77
2022/08/27 13:03:33;;;;;;;8.13;6.38;;;;;;;;;;4956639;29;20023;-76
2022/08/27 13:06:00;;;;;;;;;;;;;;;;;;4936665;29;20039;-77
2022/08/27 13:08:28;;;;;;;16.60;7.43;;;;;;;;;;4948441;29;19962;-75
2022/08/27 13:10:54;;;;;;;11.45;6.68;;;;;;;;;;4938625;29;20035;-75
2022/08/27 13:13:21;;;;;;;10.20;7.00;;;;;;;;;;4923869;29;20078;-77
2022/08/27 13:15:57;;;;;;;8.50;6.68;;;;;;;;;;4955896;29;20046;-77
2022/08/27 13:18:22;;;;;;;9.65;6.82;;;;;;;;;;4937860;29;20062;-75
2022/08/27 13:20:48;;;;;;;9.35;6.90;;;;;;;;;;4935854;29;20047;-76
2022/08/27 13:23:18;;;;;;;11.77;6.55;;;;;;;;;;4950540;28;20566;-76
2022/08/27 13:26:12;;;;;;;10.13;7.28;;;;;;;;;;4954983;29;20054;-76
2022/08/27 13:28:39;;;;;;;8.13;6.50;;;;;;;;;;4935227;29;20070;-77
2022/08/27 13:31:04;;;;;;;10.45;6.78;;;;;;;;;;4936001;29;20031;-78
2022/08/27 13:33:31;;;;;;;11.52;6.55;;;;;;;;;;4918322;29;20042;-77
2022/08/27 13:35:57;;;;;;;7.45;6.50;;;;;;;;;;4923240;29;20031;-76
2022/08/27 13:38:24;;;;;;;12.10;6.65;;;;;;;;;;4919222;29;20058;-80
2022/08/27 13:40:57;;;;;;;9.65;7.30;;;;;;;;;;4923099;29;20023;-76
2022/08/27 13:43:31;;;;;;;13.43;10.00;;;;;;;;;;4937203;29;20616;-78
2022/08/27 13:45:56;;;;;;;20.25;11.75;;;;;;;;;;4954719;29;20039;-79
2022/08/27 13:48:22;;;;;;;17.15;10.77;;;;;;;;;;4955744;29;20042;-80
2022/08/27 13:50:48;;;;;;;17.23;9.80;;;;;;;;;;4918916;29;20035;-77
2022/08/27 13:55:59;;;;;;;13.35;10.02;;;;;;;;;;4954002;29;20066;-77
2022/08/27 13:58:26;;;;;;;12.70;10.05;;;;;;;;;;4938436;29;20031;-75
2022/08/27 14:00:52;;;;;;;17.95;15.55;;;;;;;;;;4950006;29;20037;-77
2022/08/27 14:03:44;;;;;;;20.55;14.70;;;;;;;;;;4936473;29;20518;-78
2022/08/27 14:06:09;;;;;;;22.35;13.48;;;;;;;;;;4916833;29;20205;-75
2022/08/27 14:08:35;;;;;;;15.10;8.40;;;;;;;;;;4950591;29;20133;-76
2022/08/27 14:11:04;;;;;;;10.27;7.90;;;;;;;;;;4936308;29;20054;-77
2022/08/27 14:13:37;;;;;;;12.00;9.25;;;;;;;;;;4920684;29;20487;-75
2022/08/27 14:16:10;;;;;;;12.82;9.15;;;;;;;;;;4936488;29;20054;-77
2022/08/27 14:18:37;;;;;;;12.48;8.90;;;;;;;;;;4921211;29;20038;-77
2022/08/27 14:21:03;;;;;;;9.50;8.50;;;;;;;;;;4941418;29;20019;-77
2022/08/27 14:23:28;;;;;;;15.18;9.50;;;;;;;;;;4936144;29;20043;-76
2022/08/27 14:25:56;;;;;;;12.80;8.13;;;;;;;;;;4947454;29;20103;-76
2022/08/27 14:28:22;;;;;;;14.80;8.88;;;;;;;;;;4938733;29;20048;-76
2022/08/27 14:30:47;;;;;;;14.20;10.30;;;;;;;;;;4937196;29;20082;-79
2022/08/27 14:33:13;;;;;;;18.13;11.48;;;;;;;;;;4943879;29;20067;-77
2022/08/27 14:35:39;;;;;;;14.35;9.27;;;;;;;;;;4936490;28;20511;-76
2022/08/27 14:38:07;;;;;;;12.20;9.40;;;;;;;;;;4935603;29;20118;-76
2022/08/27 14:40:34;;;;;;;14.55;9.82;;;;;;;;;;4944568;29;20023;-76
2022/08/27 14:42:59;;;;;;;14.40;9.35;;;;;;;;;;4936619;29;20101;-77
2022/08/27 14:45:25;;;;;;;20.08;13.43;;;;;;;;;;4933605;29;20039;-76
2022/08/27 14:47:50;;;;;;;18.13;11.27;;;;;;;;;;4905138;29;20040;-76
2022/08/27 14:50:16;;;;;;;13.98;9.65;;;;;;;;;;4942872;28;20035;-79